Time;durP1;ratioP1;P1;durP2;ratioP2;P2;SDS_P1;SDS_P2;PMS_P1;PMS_P2;Temp;Humidity;BMP_temperature;BMP_pressure;BME280_temperature;BME280_humidity;BME280_pressure;Samples;Min_cycle;Max_cycle;Signal;HPM_P1;HPM_P2
2022/03/23 00:00:15;;;;;;;27.60;10.23;;;;;;;0.38;67.69;101729.14;1821287;78;21083;-68
2022/03/23 00:02:42;;;;;;;21.82;10.00;;;;;;;0.34;67.40;101728.16;1821077;78;21225;-68
2022/03/23 00:05:09;;;;;;;23.00;9.88;;;;;;;0.34;67.40;101728.16;1821236;78;21032;-68
2022/03/23 00:07:36;;;;;;;24.55;9.28;;;;;;;0.32;67.63;101723.77;1815679;78;21025;-69
2022/03/23 00:10:05;;;;;;;30.72;10.48;;;;;;;0.29;67.85;101722.38;1812262;79;20977;-67
2022/03/23 00:12:31;;;;;;;34.50;12.82;;;;;;;0.26;68.17;101717.12;1812147;79;21612;-68
2022/03/23 00:14:59;;;;;;;36.45;13.08;;;;;;;0.22;68.33;101720.44;1812135;79;21053;-69
2022/03/23 00:17:27;;;;;;;24.18;10.40;;;;;;;0.19;68.21;101718.22;1812056;78;21106;-67
2022/03/23 00:19:54;;;;;;;26.12;10.70;;;;;;;0.17;68.44;101712.10;1812284;78;21002;-68
2022/03/23 00:22:21;;;;;;;29.10;11.35;;;;;;;0.16;68.31;101707.77;1812158;78;21076;-68
2022/03/23 00:24:49;;;;;;;29.63;9.98;;;;;;;0.16;68.35;101706.48;1812246;79;21493;-67
2022/03/23 00:27:16;;;;;;;25.25;11.48;;;;;;;0.14;68.77;101702.08;1812081;79;22229;-67
2022/03/23 00:29:44;;;;;;;22.98;11.43;;;;;;;0.12;68.68;101699.44;1812091;78;21033;-69
2022/03/23 00:32:10;;;;;;;34.18;12.33;;;;;;;0.10;68.61;101696.34;1812552;79;20990;-68
2022/03/23 00:34:38;;;;;;;29.10;12.10;;;;;;;0.07;68.51;101694.92;1812067;78;21067;-69
2022/03/23 00:37:04;;;;;;;24.12;11.68;;;;;;;0.05;68.93;101696.20;1812200;79;21015;-69
2022/03/23 00:39:32;;;;;;;23.35;10.32;;;;;;;0.04;69.14;101690.53;1812480;78;21855;-69
2022/03/23 00:41:58;;;;;;;33.08;11.53;;;;;;;0.02;69.54;101690.02;1812223;79;21268;-68
2022/03/23 00:44:26;;;;;;;21.07;10.23;;;;;;;-0.03;69.43;101674.34;1812188;78;21037;-68
2022/03/23 00:46:54;;;;;;;24.10;10.48;;;;;;;-0.03;69.25;101676.94;1781003;79;21092;-68
2022/03/23 00:49:22;;;;;;;26.73;11.45;;;;;;;-0.06;69.71;101674.25;1814458;78;21033;-67
2022/03/23 00:51:56;;;;;;;28.10;10.65;;;;;;;-0.10;69.81;101670.68;1821126;77;21539;-68
2022/03/23 00:54:25;;;;;;;25.85;10.88;;;;;;;-0.09;70.06;101670.26;1820073;78;21076;-68
2022/03/23 00:56:52;;;;;;;29.67;12.28;;;;;;;-0.10;70.32;101664.63;1821081;77;21001;-68
2022/03/23 00:59:20;;;;;;;43.60;12.10;;;;;;;-0.09;70.42;101671.55;1821062;77;21020;-68
2022/03/23 01:01:48;;;;;;;33.20;11.78;;;;;;;-0.10;70.78;101658.16;1821165;77;21037;-68
2022/03/23 01:04:18;;;;;;;33.33;13.00;;;;;;;-0.09;70.76;101662.09;1820913;78;20998;-68
2022/03/23 01:06:47;;;;;;;31.80;12.40;;;;;;;-0.10;70.70;101659.45;1821590;78;21476;-68
2022/03/23 01:09:14;;;;;;;29.25;11.95;;;;;;;-0.12;70.51;101659.81;1830065;78;21083;-68
2022/03/23 01:11:42;;;;;;;28.45;10.63;;;;;;;-0.15;70.44;101654.55;1830147;77;20997;-68
2022/03/23 01:14:09;;;;;;;28.55;12.43;;;;;;;-0.15;70.95;101656.72;1830041;77;21028;-68
2022/03/23 01:16:39;;;;;;;27.60;11.57;;;;;;;-0.15;70.99;101648.95;1830245;77;21607;-67
2022/03/23 01:19:07;;;;;;;29.10;10.93;;;;;;;-0.14;70.94;101655.00;1830273;77;21033;-67
2022/03/23 01:21:34;;;;;;;25.68;10.10;;;;;;;-0.16;71.28;101651.48;1830147;77;21016;-69
2022/03/23 01:24:01;;;;;;;27.48;10.50;;;;;;;-0.17;71.42;101644.55;1830083;78;20977;-68
2022/03/23 01:26:27;;;;;;;31.33;11.63;;;;;;;-0.18;71.73;101653.14;1830339;77;21036;-68
2022/03/23 01:28:54;;;;;;;22.13;9.88;;;;;;;-0.19;71.87;101650.97;1830137;78;21237;-68
2022/03/23 01:31:21;;;;;;;22.25;10.88;;;;;;;-0.21;71.79;101643.56;1830287;78;21004;-68
2022/03/23 01:33:48;;;;;;;29.77;10.88;;;;;;;-0.22;72.01;101647.00;1829834;78;22129;-67
2022/03/23 01:36:15;;;;;;;37.93;12.05;;;;;;;-0.23;71.96;101651.70;1830163;77;21154;-67
2022/03/23 01:38:44;;;;;;;31.25;11.40;;;;;;;-0.27;71.63;101656.34;1829859;77;21075;-68
2022/03/23 01:41:11;;;;;;;25.85;10.95;;;;;;;-0.33;71.55;101654.42;1830093;77;21205;-67
2022/03/23 01:43:37;;;;;;;32.48;10.82;;;;;;;-0.39;71.94;101649.07;1830169;78;21041;-67
2022/03/23 01:46:04;;;;;;;27.60;10.40;;;;;;;-0.44;72.02;101649.31;1830105;77;21030;-67
2022/03/23 01:48:31;;;;;;;36.93;11.50;;;;;;;-0.49;72.17;101650.45;1830179;78;21153;-68
2022/03/23 01:50:57;;;;;;;29.35;11.15;;;;;;;-0.50;72.42;101649.14;1829939;77;21067;-69
2022/03/23 01:53:25;;;;;;;33.53;11.68;;;;;;;-0.53;72.51;101644.75;1829867;78;21195;-66
2022/03/23 01:55:51;;;;;;;34.05;11.95;;;;;;;-0.54;72.61;101649.44;1829567;78;21023;-67
2022/03/23 01:58:22;;;;;;;30.92;11.83;;;;;;;-0.55;72.67;101646.79;1802100;78;21037;-67
2022/03/23 02:00:49;;;;;;;29.30;12.37;;;;;;;-0.57;72.56;101635.54;1830105;78;21071;-66
2022/03/23 02:03:16;;;;;;;27.90;11.40;;;;;;;-0.60;72.84;101643.17;1829585;78;21064;-67
2022/03/23 02:05:42;;;;;;;25.72;11.78;;;;;;;-0.62;73.19;101639.27;1829823;78;21249;-68
2022/03/23 02:08:11;;;;;;;29.20;10.75;;;;;;;-0.64;73.10;101633.16;1826678;78;21508;-68
2022/03/23 02:10:39;;;;;;;22.95;10.68;;;;;;;-0.68;73.16;101630.88;1824097;78;21001;-68
2022/03/23 02:13:15;;;;;;;35.25;12.35;;;;;;;-0.69;73.35;101635.98;1774917;78;21015;-68
2022/03/23 02:15:42;;;;;;;31.65;11.93;;;;;;;-0.73;73.66;101627.69;1824305;78;21036;-67
2022/03/23 02:18:10;;;;;;;32.70;11.38;;;;;;;-0.76;73.56;101630.15;1824131;78;21927;-69
2022/03/23 02:20:38;;;;;;;29.77;11.00;;;;;;;-0.80;73.67;101626.59;1824260;78;21021;-68
2022/03/23 02:23:08;;;;;;;36.35;12.58;;;;;;;-0.83;73.76;101632.07;1824513;78;21559;-67
2022/03/23 02:25:36;;;;;;;29.35;11.70;;;;;;;-0.90;73.91;101630.98;1824261;78;20997;-68
2022/03/23 02:28:04;;;;;;;31.57;11.97;;;;;;;-0.93;74.40;101633.05;1824277;78;21036;-69
2022/03/23 02:30:31;;;;;;;35.30;11.65;;;;;;;-0.95;74.88;101630.83;1824266;78;21173;-67
2022/03/23 02:33:01;;;;;;;30.50;12.55;;;;;;;-0.98;75.11;101629.86;1824065;78;21048;-68
2022/03/23 02:35:28;;;;;;;29.87;11.75;;;;;;;-1.02;74.99;101624.11;1824593;78;21572;-68
2022/03/23 02:37:54;;;;;;;37.40;12.68;;;;;;;-1.10;75.01;101618.27;1824321;78;21519;-68
2022/03/23 02:40:21;;;;;;;32.80;12.20;;;;;;;-1.14;75.03;101626.73;1824248;78;21656;-68
2022/03/23 02:42:48;;;;;;;26.23;11.95;;;;;;;-1.18;75.21;101623.57;1824020;78;21139;-68
2022/03/23 02:45:15;;;;;;;29.63;12.07;;;;;;;-1.21;75.52;101622.19;1824143;78;21084;-67
2022/03/23 02:47:42;;;;;;;28.45;11.55;;;;;;;-1.24;75.64;101623.38;1824118;78;21028;-67
2022/03/23 02:50:10;;;;;;;32.03;11.03;;;;;;;-1.29;75.86;101621.02;1824640;78;21574;-67
2022/03/23 03:01:52;;;;;;;31.45;11.15;;;;;;;-1.30;75.93;101616.70;1824593;78;21717;-68
2022/03/23 03:03:55;;;;;;;36.35;12.40;;;;;;;-1.44;77.40;101620.09;1805496;78;21453;-68
2022/03/23 03:06:21;;;;;;;29.92;12.05;;;;;;;-1.49;77.70;101612.17;1824774;78;21508;-68
2022/03/23 03:08:50;;;;;;;25.48;10.68;;;;;;;-1.52;77.84;101606.91;1824354;78;21049;-67
2022/03/23 03:11:19;;;;;;;29.70;10.53;;;;;;;-1.54;77.92;101605.96;1824397;78;21045;-67
2022/03/23 03:13:48;;;;;;;24.25;9.55;;;;;;;-1.57;77.93;101610.13;1824581;78;21505;-68
2022/03/23 03:16:17;;;;;;;30.75;10.35;;;;;;;-1.62;77.74;101606.08;1824505;78;21028;-68
2022/03/23 03:18:43;;;;;;;26.17;10.28;;;;;;;-1.64;77.98;101599.11;1824690;78;21600;-68
2022/03/23 03:21:11;;;;;;;25.10;10.85;;;;;;;-1.68;78.18;101598.10;1824901;78;21171;-68
2022/03/23 03:23:42;;;;;;;33.38;11.28;;;;;;;-1.69;78.16;101596.36;1824601;78;21013;-67
2022/03/23 03:26:11;;;;;;;30.97;12.07;;;;;;;-1.71;78.23;101596.71;1824789;78;21051;-68
2022/03/23 03:28:40;;;;;;;29.52;11.50;;;;;;;-1.73;78.24;101594.06;1824386;78;22130;-67
2022/03/23 03:31:10;;;;;;;27.62;10.65;;;;;;;-1.75;78.46;101595.73;1824668;78;21059;-67
2022/03/23 03:33:37;;;;;;;30.25;11.12;;;;;;;-1.76;78.86;101596.96;1824445;78;21892;-68
2022/03/23 03:36:05;;;;;;;29.70;11.12;;;;;;;-1.78;78.99;101591.73;1824587;78;21040;-68
2022/03/23 03:38:32;;;;;;;31.35;10.40;;;;;;;-1.79;79.02;101591.70;1824553;78;21025;-68
2022/03/23 03:41:01;;;;;;;33.90;11.43;;;;;;;-1.81;79.46;101589.47;1824141;78;21011;-67
2022/03/23 03:43:30;;;;;;;27.65;9.98;;;;;;;-1.81;79.78;101586.46;1824360;78;21083;-68
2022/03/23 03:45:59;;;;;;;29.45;10.40;;;;;;;-1.82;79.66;101587.69;1824278;78;21584;-66
2022/03/23 03:48:25;;;;;;;29.95;9.98;;;;;;;-1.82;79.54;101591.56;1824328;78;21067;-70
2022/03/23 03:50:52;;;;;;;29.55;10.38;;;;;;;-1.84;79.36;101587.66;1824053;78;21044;-67
2022/03/23 03:53:19;;;;;;;33.45;11.50;;;;;;;-1.87;79.42;101587.52;1824122;78;21055;-68
2022/03/23 03:55:47;;;;;;;21.10;9.05;;;;;;;-1.90;79.56;101583.55;1823933;78;21033;-67
2022/03/23 03:58:14;;;;;;;26.42;10.58;;;;;;;-1.91;79.72;101582.67;1824321;77;21222;-67
2022/03/23 04:00:42;;;;;;;29.77;12.47;;;;;;;-1.91;79.76;101588.22;1824173;78;21071;-68
2022/03/23 04:03:08;;;;;;;30.80;12.07;;;;;;;-1.92;80.09;101584.77;1824323;78;21032;-68
2022/03/23 04:05:36;;;;;;;32.45;10.40;;;;;;;-1.91;80.27;101582.67;1824470;78;21016;-67
2022/03/23 04:08:02;;;;;;;26.97;10.55;;;;;;;-1.92;79.99;101579.60;1824494;78;21543;-68
2022/03/23 04:10:29;;;;;;;27.93;11.18;;;;;;;-1.93;80.04;101579.15;1824219;78;21996;-68
2022/03/23 04:12:56;;;;;;;31.45;11.60;;;;;;;-1.95;80.57;101575.63;1824388;78;21529;-67
2022/03/23 04:15:25;;;;;;;39.92;12.50;;;;;;;-1.94;80.70;101574.79;1824324;78;22061;-67
2022/03/23 04:17:54;;;;;;;38.53;13.03;;;;;;;-1.93;80.78;101571.41;1824457;78;21619;-67
2022/03/23 04:20:23;;;;;;;36.95;13.00;;;;;;;-1.89;81.10;101568.50;1797570;78;21012;-68
2022/03/23 04:22:49;;;;;;;35.38;12.73;;;;;;;-1.87;81.35;101568.57;1824536;78;21300;-66
2022/03/23 04:25:17;;;;;;;37.67;12.45;;;;;;;-1.82;81.17;101568.32;1824451;78;21488;-69
2022/03/23 04:27:49;;;;;;;30.37;10.95;;;;;;;-1.78;80.97;101567.61;1824329;78;21064;-68
2022/03/23 04:30:20;;;;;;;31.05;12.55;;;;;;;-1.76;80.82;101562.09;1849371;77;21076;-66
2022/03/23 04:32:49;;;;;;;28.30;10.88;;;;;;;-1.70;80.93;101564.91;1858883;76;21090;-69
2022/03/23 04:35:15;;;;;;;27.70;10.90;;;;;;;-1.32;81.99;101565.36;1815265;79;21237;-67
2022/03/23 04:37:42;;;;;;;31.07;12.25;;;;;;;-0.74;81.71;101568.57;1815023;78;21040;-68
2022/03/23 04:40:11;;;;;;;33.20;11.33;;;;;;;-0.07;80.22;101569.80;1815027;79;21013;-68
2022/03/23 04:42:38;;;;;;;24.10;9.73;;;;;;;0.57;77.83;101567.23;1788092;79;21021;-68
2022/03/23 04:45:07;;;;;;;27.42;10.23;;;;;;;1.24;75.46;101568.06;1794439;79;21105;-68
2022/03/23 04:47:34;;;;;;;36.65;9.10;;;;;;;1.89;73.07;101566.11;1815345;79;21280;-67
2022/03/23 04:50:03;;;;;;;27.80;10.13;;;;;;;2.57;70.37;101566.16;1770591;80;21076;-69
2022/03/23 04:52:30;;;;;;;24.45;10.32;;;;;;;3.22;67.63;101564.67;1760047;81;21056;-68
2022/03/23 04:54:57;;;;;;;30.27;10.63;;;;;;;3.85;64.87;101563.88;1759795;81;21013;-69
2022/03/23 04:57:26;;;;;;;24.12;10.43;;;;;;;4.48;62.68;101566.38;1780727;80;21059;-68
2022/03/23 04:59:58;;;;;;;28.27;10.85;;;;;;;5.09;60.45;101560.89;1760019;81;21134;-68
2022/03/23 05:02:28;;;;;;;25.25;10.80;;;;;;;5.42;58.32;101565.48;1782902;79;21013;-69
2022/03/23 05:04:55;;;;;;;30.62;11.60;;;;;;;5.75;56.63;101558.31;1763252;81;21077;-69
2022/03/23 05:07:22;;;;;;;28.47;11.65;;;;;;;6.24;55.30;101562.48;1783369;80;21550;-68
2022/03/23 05:09:49;;;;;;;32.03;12.45;;;;;;;6.81;53.64;101565.67;1782467;80;21024;-69
2022/03/23 05:12:17;;;;;;;48.55;11.63;;;;;;;7.33;52.03;101557.83;1782251;80;21547;-68
2022/03/23 05:14:44;;;;;;;33.13;12.40;;;;;;;7.89;50.08;101561.21;1821224;78;21477;-69
2022/03/23 05:17:12;;;;;;;38.38;11.73;;;;;;;8.41;48.83;101554.48;1821161;77;21799;-69
2022/03/23 05:19:39;;;;;;;34.83;13.32;;;;;;;8.94;47.50;101554.57;1782292;80;21032;-69
2022/03/23 05:22:08;;;;;;;33.48;13.25;;;;;;;9.50;46.22;101551.46;1821090;78;21052;-68
2022/03/23 05:24:35;;;;;;;34.30;13.95;;;;;;;9.98;44.63;101553.13;1820922;78;21122;-67
2022/03/23 05:27:03;;;;;;;32.70;13.43;;;;;;;10.43;43.68;101549.08;1820985;78;21068;-69
2022/03/23 05:29:30;;;;;;;28.50;12.47;;;;;;;10.87;42.80;101553.28;1820991;78;20977;-67
2022/03/23 05:31:57;;;;;;;32.00;12.90;;;;;;;11.25;42.02;101557.04;1821052;78;20982;-70
2022/03/23 05:34:24;;;;;;;35.40;14.25;;;;;;;11.65;40.77;101557.22;1821193;77;21037;-69
2022/03/23 05:36:52;;;;;;;32.13;14.05;;;;;;;12.06;39.66;101552.07;1821173;77;21105;-69
2022/03/23 05:39:20;;;;;;;34.23;14.47;;;;;;;12.54;38.47;101557.20;1820977;77;21504;-69
2022/03/23 05:41:47;;;;;;;34.70;14.15;;;;;;;12.95;36.65;101555.34;1820927;78;21076;-68
2022/03/23 05:44:13;;;;;;;32.40;14.73;;;;;;;13.27;36.46;101547.94;1821028;78;21020;-68
2022/03/23 05:46:40;;;;;;;36.55;14.23;;;;;;;13.60;35.38;101547.55;1821252;78;21021;-68
2022/03/23 05:49:08;;;;;;;33.28;14.30;;;;;;;13.92;34.99;101544.47;1819751;78;21221;-68
2022/03/23 05:51:35;;;;;;;36.13;14.23;;;;;;;14.32;34.47;101539.79;1812274;79;21041;-68
2022/03/23 05:56:23;;;;;;;33.13;15.08;;;;;;;15.10;33.17;101536.01;1888244;74;22377;-69
2022/03/23 05:58:51;;;;;;;36.25;15.10;;;;;;;15.44;32.62;101537.52;1851216;77;21064;-69
2022/03/23 06:01:17;;;;;;;32.88;15.32;;;;;;;15.78;32.12;101533.67;1851116;77;21196;-69
2022/03/23 06:03:49;;;;;;;34.20;16.10;;;;;;;16.19;31.38;101534.79;1850977;77;20930;-69
2022/03/23 06:06:13;;;;;;;31.02;15.38;;;;;;;16.56;30.93;101536.91;1850749;77;21045;-68
2022/03/23 06:08:41;;;;;;;29.65;15.80;;;;;;;16.91;30.53;101526.67;1851114;77;20933;-68
2022/03/23 06:11:09;;;;;;;29.50;15.40;;;;;;;17.20;29.89;101531.22;1851182;77;20960;-69
2022/03/23 06:13:37;;;;;;;31.33;16.00;;;;;;;17.52;29.22;101528.50;1850945;77;21184;-67
2022/03/23 06:16:06;;;;;;;29.92;17.70;;;;;;;17.89;28.56;101524.70;1851343;77;21005;-68
2022/03/23 06:18:32;;;;;;;33.95;18.00;;;;;;;18.16;27.79;101521.23;1851326;77;21465;-69
2022/03/23 06:21:00;;;;;;;36.58;19.50;;;;;;;18.47;27.13;101522.45;1851334;77;21067;-69
2022/03/23 06:23:27;;;;;;;39.10;19.85;;;;;;;18.78;26.52;101515.20;1851089;77;21021;-68
2022/03/23 06:25:54;;;;;;;40.00;20.85;;;;;;;19.04;26.09;101512.07;1851072;77;22007;-68
2022/03/23 06:28:22;;;;;;;36.17;21.07;;;;;;;19.27;25.79;101515.37;1851027;77;21017;-68
2022/03/23 06:30:49;;;;;;;39.58;21.77;;;;;;;19.64;25.52;101514.80;1850898;77;21052;-68
2022/03/23 06:33:15;;;;;;;40.10;23.38;;;;;;;19.91;24.66;101508.00;1851065;77;21029;-68
2022/03/23 06:35:42;;;;;;;41.68;22.77;;;;;;;20.14;24.59;101509.89;1851163;77;20973;-69
2022/03/23 06:38:10;;;;;;;42.60;23.18;;;;;;;20.44;23.90;101513.14;1851099;77;21305;-69
2022/03/23 06:40:36;;;;;;;43.92;24.70;;;;;;;20.81;23.62;101509.73;1850947;77;21029;-70
2022/03/23 06:43:03;;;;;;;44.40;24.85;;;;;;;21.24;23.14;101503.19;1851416;77;21119;-68
2022/03/23 06:45:30;;;;;;;46.15;25.50;;;;;;;21.58;22.18;101497.53;1851151;77;21005;-69
2022/03/23 06:47:58;;;;;;;41.25;25.65;;;;;;;21.81;22.00;101504.63;1851161;77;21018;-69
2022/03/23 06:50:25;;;;;;;47.95;27.90;;;;;;;22.02;21.96;101501.53;1832586;77;21241;-68
2022/03/23 06:52:52;;;;;;;45.25;27.67;;;;;;;22.34;21.52;101497.70;1823108;78;21005;-70
2022/03/23 06:55:18;;;;;;;44.50;25.10;;;;;;;22.61;21.08;101501.75;1822364;77;21536;-68
2022/03/23 06:57:46;;;;;;;46.23;27.87;;;;;;;22.89;21.10;101489.62;1820809;78;21029;-69
2022/03/23 07:00:15;;;;;;;46.65;25.50;;;;;;;23.14;20.60;101491.05;1820833;78;21076;-67
2022/03/23 07:02:47;;;;;;;48.42;29.48;;;;;;;23.32;20.78;101490.77;1820920;78;21875;-67
2022/03/23 07:05:16;;;;;;;48.25;26.60;;;;;;;23.40;20.33;101488.42;1820808;78;20998;-69
2022/03/23 07:10:31;;;;;;;47.25;30.02;;;;;;;23.70;19.57;101483.20;1820270;78;21485;-69
2022/03/23 07:12:58;;;;;;;47.58;29.30;;;;;;;23.76;19.74;101488.16;1820551;78;20997;-68
2022/03/23 07:15:25;;;;;;;53.73;31.27;;;;;;;23.88;19.68;101488.65;1820314;78;21242;-68
2022/03/23 07:17:51;;;;;;;48.83;30.15;;;;;;;24.07;19.11;101482.30;1820405;78;20993;-68
2022/03/23 07:20:19;;;;;;;55.73;31.02;;;;;;;23.96;19.37;101476.83;1820535;78;21017;-68
2022/03/23 07:22:46;;;;;;;57.43;33.15;;;;;;;24.63;18.94;101478.26;1820427;78;21065;-68
2022/03/23 07:25:13;;;;;;;50.15;30.72;;;;;;;25.07;18.68;101472.66;1820406;78;20990;-68
2022/03/23 07:27:41;;;;;;;54.98;31.90;;;;;;;25.07;18.68;101472.66;1820371;78;20990;-68
2022/03/23 07:30:10;;;;;;;52.93;31.20;;;;;;;26.01;17.53;101468.89;1820136;78;21049;-71
2022/03/23 07:32:38;;;;;;;52.35;30.08;;;;;;;26.01;17.53;101468.89;1820561;78;21599;-69
2022/03/23 07:35:07;;;;;;;57.17;33.75;;;;;;;26.35;16.87;101478.28;1820189;78;21056;-71
2022/03/23 07:37:34;;;;;;;46.28;29.45;;;;;;;26.57;17.21;101476.91;1820622;78;21049;-70
2022/03/23 07:40:02;;;;;;;50.00;31.40;;;;;;;26.91;17.04;101475.39;1820103;78;21679;-68
2022/03/23 07:42:29;;;;;;;47.55;29.77;;;;;;;27.18;16.70;101467.27;1820455;78;20990;-68
2022/03/23 07:44:57;;;;;;;50.17;33.18;;;;;;;27.41;16.38;101472.92;1820178;78;21541;-69
2022/03/23 07:47:24;;;;;;;51.92;31.40;;;;;;;27.61;15.94;101470.34;1820355;78;21056;-68
2022/03/23 07:49:51;;;;;;;55.30;34.23;;;;;;;27.66;15.35;101473.48;1820409;78;21466;-68
2022/03/23 07:52:18;;;;;;;49.90;30.60;;;;;;;27.45;16.00;101469.94;1820348;78;21266;-68
2022/03/23 07:54:45;;;;;;;54.27;32.75;;;;;;;27.32;15.84;101466.96;1819994;77;21040;-67
2022/03/23 07:57:12;;;;;;;49.38;31.35;;;;;;;27.28;15.92;101462.80;1820294;78;20999;-69
2022/03/23 07:59:41;;;;;;;49.50;29.23;;;;;;;27.35;15.70;101459.92;1820327;78;21033;-70
2022/03/23 08:02:08;;;;;;;42.85;26.68;;;;;;;27.48;15.79;101461.08;1820141;78;21037;-69
2022/03/23 08:04:36;;;;;;;45.43;28.25;;;;;;;27.72;15.61;101458.06;1819968;78;21028;-68
2022/03/23 08:07:04;;;;;;;40.67;25.72;;;;;;;27.91;15.48;101456.45;1820201;78;20942;-68
2022/03/23 08:09:31;;;;;;;47.53;29.32;;;;;;;28.11;15.25;101458.20;1820422;78;21028;-69
2022/03/23 08:11:59;;;;;;;36.17;22.13;;;;;;;27.97;15.30;101446.41;1820251;78;21014;-69
2022/03/23 08:14:25;;;;;;;37.85;23.50;;;;;;;27.52;15.30;101446.80;1820209;78;21099;-68
2022/03/23 08:16:53;;;;;;;35.98;22.02;;;;;;;27.33;15.51;101449.77;1820184;78;21223;-69
2022/03/23 08:19:22;;;;;;;38.78;24.75;;;;;;;27.39;15.54;101442.95;1820081;78;21037;-68
2022/03/23 08:21:50;;;;;;;36.68;23.73;;;;;;;27.64;15.35;101444.34;1820183;78;21587;-68
2022/03/23 08:24:17;;;;;;;32.03;21.02;;;;;;;27.82;15.19;101440.00;1819987;78;21091;-69
2022/03/23 08:26:43;;;;;;;38.33;23.67;;;;;;;27.98;15.16;101444.08;1820222;78;21033;-69
2022/03/23 08:29:10;;;;;;;43.50;26.82;;;;;;;28.06;14.95;101440.16;1819951;78;21239;-70
2022/03/23 08:31:37;;;;;;;41.08;25.92;;;;;;;28.11;15.12;101444.66;1819918;78;21009;-70
2022/03/23 08:34:04;;;;;;;36.95;23.62;;;;;;;28.35;15.17;101433.45;1820147;78;21045;-69
2022/03/23 08:36:31;;;;;;;41.98;25.48;;;;;;;28.39;14.98;101435.36;1820511;78;21017;-70
2022/03/23 08:38:59;;;;;;;19.75;11.63;;;;;;;28.52;15.08;101434.63;1820108;78;21069;-69
2022/03/23 08:41:27;;;;;;;20.08;12.63;;;;;;;28.58;14.69;101427.80;1820693;78;21827;-69
2022/03/23 08:43:54;;;;;;;29.67;19.25;;;;;;;28.60;14.55;101430.72;1819948;78;21071;-70
2022/03/23 08:46:21;;;;;;;34.18;19.98;;;;;;;28.68;14.64;101426.44;1819961;78;20997;-69
2022/03/23 08:48:49;;;;;;;32.15;20.43;;;;;;;28.71;14.67;101423.42;1820101;78;21124;-69
2022/03/23 08:51:16;;;;;;;35.98;22.40;;;;;;;28.83;14.44;101425.86;1820227;78;21076;-70
2022/03/23 08:53:43;;;;;;;29.60;16.12;;;;;;;28.71;14.44;101422.07;1820345;78;21620;-68
2022/03/23 08:56:13;;;;;;;32.70;20.32;;;;;;;28.45;14.53;101417.20;1818122;77;21045;-70
2022/03/23 08:58:47;;;;;;;33.75;20.08;;;;;;;28.47;14.51;101417.95;1817072;79;25591;-70
2022/03/23 09:01:09;;;;;;;30.77;19.50;;;;;;;28.40;14.60;101414.06;1815942;79;21056;-69
2022/03/23 09:03:37;;;;;;;28.85;17.92;;;;;;;28.32;14.51;101409.84;1817047;78;21064;-68
2022/03/23 09:06:04;;;;;;;28.07;17.15;;;;;;;28.48;14.62;101406.09;1816634;79;21184;-70
2022/03/23 09:08:32;;;;;;;26.75;15.90;;;;;;;28.74;14.33;101400.13;1787374;79;21047;-71
2022/03/23 09:10:59;;;;;;;23.10;13.85;;;;;;;28.59;14.02;101408.66;1816950;79;21092;-70
2022/03/23 09:13:28;;;;;;;23.73;13.80;;;;;;;28.63;14.01;101391.12;1816620;79;21072;-69
2022/03/23 09:15:59;;;;;;;30.40;16.27;;;;;;;28.94;13.97;101392.31;1816864;79;21080;-70
2022/03/23 09:18:28;;;;;;;23.92;13.30;;;;;;;29.05;13.81;101389.91;1817002;78;21029;-71
2022/03/23 09:20:55;;;;;;;37.75;20.50;;;;;;;29.04;13.60;101385.00;1816772;79;20986;-70
2022/03/23 09:23:23;;;;;;;40.28;23.50;;;;;;;29.04;13.60;101385.00;1816946;79;20982;-68
2022/03/23 09:25:50;;;;;;;39.10;23.95;;;;;;;28.82;13.73;101380.75;1816613;78;21091;-69
2022/03/23 09:28:18;;;;;;;49.27;29.12;;;;;;;28.51;14.23;101388.72;1816636;78;21042;-69
2022/03/23 09:30:44;;;;;;;57.73;31.20;;;;;;;28.51;14.11;101380.09;1816804;77;21217;-71
2022/03/23 09:33:12;;;;;;;44.85;25.45;;;;;;;28.50;14.18;101378.87;1816966;79;21060;-70
2022/03/23 09:35:39;;;;;;;58.02;33.25;;;;;;;28.51;14.14;101380.09;1816759;79;21009;-71
2022/03/23 09:38:06;;;;;;;58.83;33.70;;;;;;;28.38;13.84;101365.94;1816912;79;21060;-69
2022/03/23 09:40:32;;;;;;;56.50;31.87;;;;;;;28.15;14.21;101363.50;1816795;78;20985;-68
2022/03/23 09:43:08;;;;;;;64.32;38.53;;;;;;;27.78;14.43;101369.53;1816897;78;21273;-70
2022/03/23 09:48:11;;;;;;;52.80;34.88;;;;;;;27.66;14.45;101361.18;1817219;79;20989;-70
2022/03/23 09:50:40;;;;;;;54.35;35.15;;;;;;;27.57;14.77;101356.59;1821120;78;21088;-70
2022/03/23 09:53:08;;;;;;;56.23;35.28;;;;;;;27.12;14.87;101348.83;1823065;78;21583;-69
2022/03/23 09:55:36;;;;;;;38.38;24.98;;;;;;;26.70;15.15;101340.77;1821873;77;21102;-70
2022/03/23 09:58:06;;;;;;;39.33;25.65;;;;;;;26.21;15.16;101339.52;1817601;78;21049;-69
2022/03/23 10:00:42;;;;;;;42.38;25.75;;;;;;;25.96;15.57;101333.47;1817560;79;20993;-71
2022/03/23 10:03:17;;;;;;;41.40;25.75;;;;;;;25.92;15.84;101333.34;1817555;78;21029;-70
2022/03/23 10:06:40;;;;;;;37.67;21.57;;;;;;;26.05;15.92;101338.09;1816535;78;21084;-69
2022/03/23 10:09:27;;;;;;;27.50;18.65;;;;;;;26.25;15.27;101330.16;1827729;77;21079;-69
2022/03/23 10:12:47;;;;;;;25.88;17.87;;;;;;;26.29;15.54;101325.72;1850821;77;21571;-70
2022/03/23 10:15:52;;;;;;;30.65;18.23;;;;;;;26.60;15.24;101315.55;1851035;77;21012;-69
2022/03/23 10:18:33;;;;;;;23.47;13.98;;;;;;;26.76;15.06;101318.63;1851082;77;21016;-71
2022/03/23 10:21:01;;;;;;;19.32;12.70;;;;;;;26.49;15.38;101308.33;1828296;77;21533;-70
2022/03/23 10:23:29;;;;;;;19.00;10.18;;;;;;;26.29;15.05;101301.41;1851058;77;21783;-70
2022/03/23 10:25:57;;;;;;;18.57;10.15;;;;;;;26.20;15.41;101305.39;1850868;77;21029;-71
2022/03/23 10:28:28;;;;;;;17.52;8.98;;;;;;;26.32;15.28;101299.82;1850938;77;21017;-70
2022/03/23 10:30:53;;;;;;;15.32;8.33;;;;;;;26.25;14.87;101292.35;1850133;77;21084;-70
2022/03/23 10:33:23;;;;;;;14.30;9.08;;;;;;;26.09;14.84;101282.88;1850883;77;21123;-69
2022/03/23 10:35:51;;;;;;;13.93;7.13;;;;;;;25.85;15.23;101295.69;1850728;77;21661;-69
2022/03/23 10:38:22;;;;;;;11.18;6.47;;;;;;;25.59;15.42;101285.21;1850869;77;21033;-71
2022/03/23 10:40:52;;;;;;;12.30;6.58;;;;;;;25.47;15.55;101281.69;1850640;77;21548;-70
2022/03/23 10:43:36;;;;;;;12.65;6.70;;;;;;;25.52;15.80;101273.22;1851351;77;21033;-71
2022/03/23 10:46:10;;;;;;;12.18;6.30;;;;;;;25.65;15.37;101270.34;1850949;77;21080;-69
2022/03/23 10:48:37;;;;;;;10.10;6.10;;;;;;;25.64;15.71;101272.20;1851180;77;21190;-70
2022/03/23 10:51:04;;;;;;;10.23;5.50;;;;;;;25.72;15.43;101267.50;1819898;77;21049;-69
2022/03/23 10:53:37;;;;;;;11.48;6.12;;;;;;;25.54;15.57;101264.52;1817857;78;21069;-71
2022/03/23 10:56:06;;;;;;;14.38;5.70;;;;;;;25.30;15.61;101257.92;1818302;78;21572;-70
2022/03/23 10:58:35;;;;;;;10.35;5.12;;;;;;;25.26;15.89;101252.41;1822729;78;21021;-68
2022/03/23 11:01:05;;;;;;;10.63;6.10;;;;;;;25.37;15.92;101242.95;1822970;78;21126;-69
2022/03/23 11:03:38;;;;;;;9.10;5.70;;;;;;;25.57;15.51;101237.28;1822926;78;21561;-68
2022/03/23 11:06:09;;;;;;;18.27;6.42;;;;;;;25.66;15.47;101237.86;1821909;78;20994;-69
2022/03/23 11:08:36;;;;;;;13.08;6.15;;;;;;;25.57;15.40;101223.80;1822661;78;21045;-69
2022/03/23 11:16:51;;;;;;;12.15;5.17;;;;;;;25.15;15.58;101212.84;1756592;80;20985;-71
2022/03/23 11:19:26;;;;;;;10.30;4.78;;;;;;;25.09;15.69;101213.33;1756446;81;21628;-70
2022/03/23 11:22:16;;;;;;;8.00;4.60;;;;;;;25.06;15.47;101203.66;1756452;81;21077;-70
2022/03/23 11:36:51;;;;;;;8.60;3.87;;;;;;;25.69;15.25;101182.80;1808721;79;22065;-70
2022/03/23 11:39:21;;;;;;;8.15;4.05;;;;;;;25.71;14.99;101189.77;1798737;79;20971;-69
2022/03/23 11:53:02;;;;;;;9.35;4.50;;;;;;;25.75;15.13;101154.81;1859813;77;22702;-70
2022/03/23 11:55:39;;;;;;;8.73;4.53;;;;;;;25.61;15.01;101156.48;1829001;78;21057;-69
2022/03/23 11:58:23;;;;;;;9.78;5.15;;;;;;;25.40;15.62;101148.81;1828718;78;21446;-69
2022/03/23 12:01:09;;;;;;;13.85;5.67;;;;;;;25.27;15.60;101151.70;1828792;78;20989;-70
2022/03/23 12:04:02;;;;;;;11.78;7.00;;;;;;;25.00;15.54;101148.05;1829072;78;21458;-69